• Join FlightAware (Why Join?)
  • Login
  • US Flag 
06:52PM EST


 

Airport Tracker/Info


-or-


 

Live Flight TrackerFlight Track Log ✈ TCF3444 ✈ 04-May-2013 ✈ KDEN - KDFW

Flight Track Log - Related Links

Times and Time Zones

All times are in EDT time to prevent confusion due to time zone crossing. See the TCF3444 flight status page for this flight to view local times or setup timezone preferences in your user account.

Time Position Orientation Groundspeed Altitude Reporting Facility
EDT Latitude Longitude Course Direction KTS MPH feet Rate Location/Type
01:25PM 39.8833 -104.6167 180° South 155 178 6,200  Level Denver TRACON
01:26PM 39.8667 -104.5500 108° East 211 243 7,100 1,440 Climbing Denver TRACON
01:27PM 39.8272 -104.5281 157° South 224 258 8,700 1,920 Climbing Denver Center
01:28PM 39.5655 -104.4443 212° Southwest  Level FlightAware Approximate
01:28PM 39.7544 -104.5208 176° South 263 303 10,500  Level Denver Center
01:29PM 39.4563 -104.5000 180° South  Level FlightAware Approximate
01:29PM 39.6669 -104.5119 176° South 317 365 12,800  Level Denver Center
01:30PM 39.3362 -104.5000 180° South  Level FlightAware Approximate
01:30PM 39.5678 -104.5022 176° South 337 388 15,500  Level Denver Center
01:31PM 39.4703 -104.4917 175° South 363 418 17,800 2,280 Climbing Denver Center
01:32PM 39.3619 -104.4808 176° South 365 420 20,300 2,220 Climbing Denver Center
01:33PM 39.2586 -104.4703 175° South 372 428 22,400 1,920 Climbing Denver Center
01:34PM 39.1436 -104.4592 176° South 382 440 24,300 1,680 Climbing Denver Center
01:35PM 39.0392 -104.4331 169° South 394 453 25,900 1,500 Climbing Denver Center
01:36PM 38.9208 -104.3992 167° South 411 473 27,400 1,380 Climbing Denver Center
01:37PM 38.8047 -104.3672 168° South 422 486 28,800 1,200 Climbing Denver Center
01:38PM 38.6858 -104.3319 167° South 433 498 30,000 1,020 Climbing Denver Center
01:39PM 38.5814 -104.2375 145° Southeast 461 531 31,000 1,020 Climbing Denver Center
01:40PM 38.4769 -104.1275 140° Southeast 472 543 32,100 960 Climbing Denver Center
01:41PM 38.3642 -104.0086 140° Southeast 470 541 33,000 480 Climbing Denver Center
01:42PM 38.2681 -103.9036 139° Southeast 473 544 33,200 720 Climbing Denver Center
01:43PM 38.1728 -103.8028 140° Southeast 465 535 34,500 840 Climbing Denver Center
01:44PM 38.0625 -103.6869 140° Southeast 458 527 35,000 240 Climbing Denver Center
01:45PM 37.9656 -103.5825 140° Southeast 472 543 35,000  Level Denver Center
01:46PM 37.8519 -103.4617 140° Southeast 474 545 35,000  Level Denver Center
01:47PM 37.7531 -103.3589 141° Southeast 476 548 35,000  Level Denver Center
01:48PM 37.6553 -103.2561 140° Southeast 475 547 35,000  Level Denver Center
01:49PM 37.5403 -103.1364 140° Southeast 476 548 35,000  Level Denver Center
01:50PM 37.4422 -103.0333 140° Southeast 477 549 35,000  Level Denver Center
01:51PM 37.3264 -102.9144 141° Southeast 479 551 35,000  Level Denver Center
01:52PM 37.2775 -102.8647 141° Southeast 478 550 35,000  Level Albuquerque Center
01:53PM 37.1622 -102.7464 141° Southeast 478 550 35,000  Level Albuquerque Center
01:54PM 37.0647 -102.6425 140° Southeast 479 551 35,000  Level Albuquerque Center
01:55PM 36.9489 -102.5253 141° Southeast 479 551 35,000  Level Albuquerque Center
01:56PM 36.8547 -102.4308 141° Southeast 481 554 35,000  Level Albuquerque Center
01:57PM 36.7600 -102.3117 135° Southeast 484 557 35,000  Level Albuquerque Center
01:58PM 36.6647 -102.1658 129° Southeast 486 559 35,000  Level Albuquerque Center
01:59PM 36.5694 -102.0272 131° Southeast 485 558 35,000  Level Albuquerque Center
02:00PM 36.4831 -101.8992 130° Southeast 484 557 35,000  Level Albuquerque Center
02:01PM 36.3956 -101.7703 130° Southeast 485 558 35,000  Level Albuquerque Center
02:02PM 36.3078 -101.6436 131° Southeast 486 559 35,000  Level Albuquerque Center
02:03PM 36.2200 -101.5161 130° Southeast 485 558 35,000  Level Albuquerque Center
02:04PM 36.1311 -101.3878 131° Southeast 488 562 35,000  Level Albuquerque Center
02:05PM 36.0258 -101.2333 130° Southeast 487 560 35,000  Level Albuquerque Center
02:06PM 35.9375 -101.1053 130° Southeast 487 560 35,000  Level Albuquerque Center
02:07PM 35.8489 -100.9769 130° Southeast 489 563 35,000  Level Albuquerque Center
02:08PM 35.7594 -100.8514 131° Southeast 486 559 35,000  Level Albuquerque Center
02:09PM 35.6706 -100.7231 130° Southeast 488 562 35,000  Level Albuquerque Center
02:10PM 35.5803 -100.5975 131° Southeast 490 564 35,000  Level Albuquerque Center
02:11PM 35.4911 -100.4700 131° Southeast 491 565 35,000  Level Albuquerque Center
02:12PM 35.4014 -100.3444 131° Southeast 490 564 35,000  Level Albuquerque Center
02:14PM 35.2939 -100.1933 131° Southeast 489 563 35,000  Level Albuquerque Center
02:15PM 35.2031 -100.0678 132° Southeast 490 564 35,000  Level Albuquerque Center
02:16PM 35.1131 -99.9425 131° Southeast 491 565 35,000  Level Albuquerque Center
02:17PM 35.0228 -99.8169 131° Southeast 491 565 35,000  Level Albuquerque Center
02:18PM 34.9311 -99.6914 132° Southeast 494 568 35,000  Level Albuquerque Center
02:19PM 34.8411 -99.5639 131° Southeast 490 564 35,000  Level Fort Worth Center
02:20PM 34.7678 -99.4661 132° Southeast 495 570 35,000  Level Fort Worth Center
02:21PM 34.6656 -99.3322 133° Southeast 495 570 35,000  Level Fort Worth Center
02:22PM 34.5714 -99.2042 132° Southeast 502 578 35,000  Level Fort Worth Center
02:23PM 34.4794 -99.0786 132° Southeast 502 578 35,000 -60 Level Fort Worth Center
02:24PM 34.3850 -98.9511 132° Southeast 502 578 34,900 -1,380 Descending Fort Worth Center
02:25PM 34.2883 -98.8236 133° Southeast 507 583 32,300 -2,700 Descending Fort Worth Center
02:26PM 34.1939 -98.6967 132° Southeast 502 578 29,600 -2,760 Descending Fort Worth Center
02:27PM 34.0969 -98.5672 132° Southeast 502 578 26,800 -2,820 Descending Fort Worth Center
02:28PM 33.9958 -98.4306 132° Southeast 499 574 24,000 -1,440 Descending Fort Worth Center
02:29PM 33.9050 -98.3094 132° Southeast 489 563 24,000  Level Fort Worth Center
02:30PM 33.8161 -98.1908 132° Southeast 489 563 24,000 -420 Level Fort Worth Center
02:31PM 33.7311 -98.0828 133° Southeast 484 557 23,200 -1,860 Descending Fort Worth Center
02:32PM 33.6317 -97.9547 133° Southeast 476 548 20,300 -2,640 Descending Fort Worth Center
02:33PM 33.5422 -97.8447 134° Southeast 471 542 18,000 -2,280 Descending Fort Worth Center
02:34PM 33.4675 -97.7497 133° Southeast 452 520 15,800 -2,340 Descending Fort Worth Center
02:35PM 33.3739 -97.6325 134° Southeast 441 507 13,400 -2,400 Descending Fort Worth Center
02:36PM 33.2925 -97.5378 136° Southeast 425 489 11,100 -1,200 Descending Fort Worth Center
02:37PM 33.2194 -97.4506 135° Southeast 414 476 11,000 -60 Descending Fort Worth Center
02:38PM 33.1297 -97.3464 136° Southeast 414 476 11,000  Level Fort Worth Center
02:39PM 33.0525 -97.2547 135° Southeast 398 458 11,000  Level Fort Worth Center
02:40PM 32.9833 -97.1781 137° Southeast 361 415 11,000 -360 Level Fort Worth Center
02:41PM 32.9061 -97.1733 177° South 276 318 10,300 -900 Descending Fort Worth Center
02:42PM 32.8311 -97.1711 179° South 281 323 9,200 -1,500 Descending Fort Worth Center
02:43PM 32.7683 -97.1689 178° South 269 310 7,400 -1,920 Descending Fort Worth Center
02:44PM 32.6933 -97.1689 180° South 253 291 5,400 -1,200 Descending Fort Worth Center
02:45PM 32.6597 -97.1344 139° Southeast 197 227 5,000 -360 Descending Fort Worth Center
02:46PM 32.6700 -97.0681 80° East 162 186 4,700 -600 Descending Fort Worth Center
02:47PM 32.7097 -97.0603 North 118 136 3,900 -900 Descending Fort Worth Center
02:48PM 32.7597 -97.0578 North 138 159 2,900 -960 Descending Fort Worth Center
02:49PM 32.8000 -97.0500 North 140 161 1,900 -900 Descending Dallas / Fort Worth TRACON